createdAt,value
2019-06-08T00:01:40.819Z,77.40
2019-06-08T00:04:09.933Z,77.50
2019-06-08T00:06:38.620Z,77.10
2019-06-08T00:09:07.020Z,76.90
2019-06-08T00:11:35.434Z,76.70
2019-06-08T00:14:03.829Z,76.60
2019-06-08T00:16:32.233Z,76.50
2019-06-08T00:19:01.514Z,76.30
2019-06-08T00:21:29.897Z,76.30
2019-06-08T00:23:58.619Z,76.10
2019-06-08T00:26:27.037Z,76.20
2019-06-08T00:28:55.696Z,76.20
2019-06-08T00:31:26.332Z,76.10
2019-06-08T00:33:55.037Z,75.70
2019-06-08T00:36:24.955Z,75.90
2019-06-08T00:38:53.831Z,75.40
2019-06-08T00:41:23.711Z,74.90
2019-06-08T00:43:52.503Z,75.30
2019-06-08T00:46:21.413Z,75.20
2019-06-08T00:48:50.654Z,74.30
2019-06-08T00:51:19.332Z,74.60
2019-06-08T00:53:47.953Z,73.80
2019-06-08T00:56:17.397Z,74.10
2019-06-08T00:58:45.863Z,74.00
2019-06-08T01:01:14.254Z,73.70
2019-06-08T01:03:42.680Z,73.50
2019-06-08T01:06:11.203Z,74.00
2019-06-08T01:08:39.962Z,73.70
2019-06-08T01:11:08.362Z,73.60
2019-06-08T01:13:37.141Z,73.40
2019-06-08T01:16:05.537Z,73.30
2019-06-08T01:18:33.957Z,73.00
2019-06-08T01:21:02.354Z,73.10
2019-06-08T01:23:30.754Z,72.60
2019-06-08T01:25:59.889Z,73.00
2019-06-08T01:28:30.194Z,72.70
2019-06-08T01:30:58.742Z,72.90
2019-06-08T01:33:27.147Z,72.10
2019-06-08T01:35:55.538Z,71.70
2019-06-08T01:38:25.079Z,71.80
2019-06-08T01:40:54.614Z,72.30
2019-06-08T01:43:23.669Z,72.70
2019-06-08T01:45:52.466Z,72.00
2019-06-08T01:48:22.288Z,71.80
2019-06-08T01:50:50.873Z,72.60
2019-06-08T01:53:19.868Z,71.90
2019-06-08T01:55:48.498Z,70.90
2019-06-08T01:58:16.895Z,70.20
2019-06-08T02:00:45.276Z,69.80
2019-06-08T02:03:13.715Z,69.00
2019-06-08T02:05:42.271Z,68.70
2019-06-08T02:08:10.673Z,68.90
2019-06-08T02:10:39.561Z,68.60
2019-06-08T02:13:08.954Z,68.10
2019-06-08T02:15:37.441Z,68.60
2019-06-08T02:18:06.242Z,67.30
2019-06-08T02:20:35.225Z,67.30
2019-06-08T02:23:04.146Z,67.60
2019-06-08T02:25:33.573Z,66.90
2019-06-08T02:28:02.151Z,66.70
2019-06-08T02:30:34.121Z,66.90
2019-06-08T02:33:02.411Z,66.90
2019-06-08T02:35:32.595Z,67.00
2019-06-08T02:38:01.635Z,67.20
2019-06-08T02:40:30.861Z,67.10
2019-06-08T02:43:00.231Z,67.10
2019-06-08T02:45:29.628Z,67.40
2019-06-08T02:47:58.797Z,67.10
2019-06-08T02:50:52.596Z,66.90
2019-06-08T02:53:21.745Z,66.80
2019-06-08T02:55:50.780Z,67.00
2019-06-08T02:58:19.770Z,67.10
2019-06-08T03:00:50.106Z,67.40
2019-06-08T03:03:18.674Z,67.80
2019-06-08T03:05:49.205Z,67.60
2019-06-08T03:08:19.238Z,66.80
2019-06-08T03:10:51.512Z,66.70
2019-06-08T03:13:22.247Z,66.70
2019-06-08T03:15:50.667Z,67.50
2019-06-08T03:18:19.141Z,67.50
2019-06-08T03:20:48.015Z,66.50
2019-06-08T03:23:16.437Z,66.60
2019-06-08T03:25:52.558Z,66.80
2019-06-08T03:28:15.266Z,66.70
2019-06-08T03:30:52.430Z,65.90
2019-06-08T03:33:14.063Z,65.70
2019-06-08T03:35:52.711Z,65.80
2019-06-08T03:38:12.938Z,65.90
2019-06-08T03:40:43.327Z,65.50
2019-06-08T03:43:11.463Z,65.30
2019-06-08T03:45:40.809Z,65.30
2019-06-08T03:48:09.986Z,65.10
2019-06-08T03:50:40.234Z,65.20
2019-06-08T03:53:08.884Z,64.80
2019-06-08T03:55:38.066Z,64.80
2019-06-08T03:58:10.327Z,64.90
2019-06-08T04:00:38.235Z,65.20
2019-06-08T04:03:06.691Z,64.70
2019-06-08T04:05:37.716Z,65.00
2019-06-08T04:08:05.977Z,65.10
2019-06-08T04:10:34.613Z,64.80
2019-06-08T04:13:03.008Z,64.70
2019-06-08T04:15:32.907Z,64.50
2019-06-08T04:18:01.298Z,64.70
2019-06-08T04:20:29.690Z,64.50
2019-06-08T04:22:58.109Z,64.80
2019-06-08T04:25:26.564Z,65.00
2019-06-08T04:27:54.958Z,65.00
2019-06-08T04:30:23.728Z,64.30
2019-06-08T04:32:52.718Z,64.60
2019-06-08T04:35:21.409Z,64.30
2019-06-08T04:37:50.571Z,63.70
2019-06-08T04:40:19.350Z,63.90
2019-06-08T04:42:49.406Z,64.50
2019-06-08T04:45:18.397Z,64.50
2019-06-08T04:47:48.188Z,64.00
2019-06-08T04:50:23.357Z,64.00
2019-06-08T04:52:48.060Z,63.70
2019-06-08T04:55:17.682Z,63.70
2019-06-08T04:57:48.097Z,64.20
2019-06-08T05:00:16.566Z,63.90
2019-06-08T05:02:47.042Z,63.80
2019-06-08T05:05:15.405Z,63.30
2019-06-08T05:07:45.802Z,63.30
2019-06-08T05:10:14.642Z,63.80
2019-06-08T05:12:43.463Z,63.70
2019-06-08T05:15:12.101Z,63.20
2019-06-08T05:17:41.357Z,61.80
2019-06-08T05:20:10.420Z,62.40
2019-06-08T05:22:41.314Z,61.80
2019-06-08T05:25:09.973Z,61.30
2019-06-08T05:27:39.392Z,60.90
2019-06-08T05:30:09.162Z,60.00
2019-06-08T05:32:39.308Z,60.60
2019-06-08T05:35:08.083Z,59.60
2019-06-08T05:37:36.512Z,59.20
2019-06-08T05:40:07.046Z,59.80
2019-06-08T05:42:35.673Z,58.80
2019-06-08T05:45:07.196Z,58.40
2019-06-08T05:47:35.660Z,59.40
2019-06-08T05:50:06.190Z,60.20
2019-06-08T05:52:34.954Z,58.60
2019-06-08T05:55:04.581Z,59.40
2019-06-08T05:57:32.974Z,60.00
2019-06-08T06:00:08.456Z,59.80
2019-06-08T06:02:31.858Z,60.20
2019-06-08T06:05:00.557Z,60.30
2019-06-08T06:07:30.431Z,60.40
2019-06-08T06:09:59.084Z,61.10
2019-06-08T06:12:27.778Z,61.00
2019-06-08T06:14:56.917Z,60.70
2019-06-08T06:17:25.361Z,59.90
2019-06-08T06:19:54.029Z,60.10
2019-06-08T06:22:22.679Z,60.20
2019-06-08T06:24:51.891Z,60.70
2019-06-08T06:27:20.453Z,60.50
2019-06-08T06:29:49.970Z,60.30
2019-06-08T06:32:18.608Z,60.10
2019-06-08T06:34:47.929Z,60.20
2019-06-08T06:37:16.859Z,60.60
2019-06-08T06:39:45.956Z,60.10
2019-06-08T06:42:14.607Z,59.40
2019-06-08T06:44:45.750Z,59.20
2019-06-08T06:47:13.507Z,59.60
2019-06-08T06:49:42.384Z,59.30
2019-06-08T06:52:11.196Z,60.20
2019-06-08T06:54:39.583Z,59.40
2019-06-08T06:57:08.576Z,59.50
2019-06-08T06:59:37.267Z,59.80
2019-06-08T07:02:06.066Z,59.90
2019-06-08T07:04:34.933Z,59.90
2019-06-08T07:07:03.758Z,59.70
2019-06-08T07:09:32.157Z,60.50
2019-06-08T07:12:01.134Z,60.00
2019-06-08T07:14:29.815Z,58.40
2019-06-08T07:16:58.425Z,59.40
2019-06-08T07:19:26.810Z,59.20
2019-06-08T07:21:55.310Z,58.80
2019-06-08T07:24:23.965Z,58.60
2019-06-08T07:26:52.498Z,58.30
2019-06-08T07:29:21.254Z,58.70
2019-06-08T07:31:50.328Z,58.60
2019-06-08T07:34:19.914Z,58.40
2019-06-08T07:36:49.655Z,59.30
2019-06-08T07:39:18.141Z,59.80
2019-06-08T07:41:47.444Z,58.50
2019-06-08T07:44:16.707Z,57.00
2019-06-08T07:46:45.097Z,57.70
2019-06-08T07:49:13.487Z,57.80
2019-06-08T07:51:57.816Z,57.00
2019-06-08T07:54:12.661Z,57.10
2019-06-08T07:56:41.642Z,57.50
2019-06-08T07:59:10.115Z,56.40
2019-06-08T08:01:38.576Z,56.80
2019-06-08T08:04:07.113Z,57.40
2019-06-08T08:06:35.809Z,57.90
2019-06-08T08:09:06.433Z,58.10
2019-06-08T08:11:34.848Z,58.40
2019-06-08T08:14:03.871Z,58.20
2019-06-08T08:16:32.707Z,58.80
2019-06-08T08:19:01.101Z,59.00
2019-06-08T08:21:29.719Z,58.80
2019-06-08T08:24:00.187Z,58.60
2019-06-08T08:26:31.294Z,59.10
2019-06-08T08:29:02.535Z,59.20
2019-06-08T08:31:29.033Z,58.70
2019-06-08T08:34:00.874Z,59.10
2019-06-08T08:36:29.403Z,59.80
2019-06-08T08:39:00.613Z,60.60
2019-06-08T08:41:28.204Z,58.30
2019-06-08T08:44:00.801Z,58.70
2019-06-08T08:46:28.569Z,58.30
2019-06-08T08:49:06.033Z,58.30
2019-06-08T08:51:28.149Z,58.60
2019-06-08T08:54:02.061Z,57.80
2019-06-08T08:56:28.003Z,58.00
2019-06-08T08:58:59.310Z,58.00
2019-06-08T09:01:28.777Z,58.10
2019-06-08T09:04:01.693Z,58.50
2019-06-08T09:06:28.020Z,58.60
2019-06-08T09:09:00.775Z,58.30
2019-06-08T09:11:28.891Z,58.30
2019-06-08T09:14:01.411Z,58.00
2019-06-08T09:16:28.930Z,58.30
2019-06-08T09:19:01.095Z,58.40
2019-06-08T09:21:28.370Z,59.20
2019-06-08T09:24:00.795Z,58.10
2019-06-08T09:26:28.750Z,57.90
2019-06-08T09:28:58.255Z,57.50
2019-06-08T09:31:28.075Z,57.10
2019-06-08T09:34:08.589Z,57.00
2019-06-08T09:36:28.718Z,57.40
2019-06-08T09:38:59.606Z,57.90
2019-06-08T09:41:30.828Z,56.20
2019-06-08T09:44:00.526Z,55.90
2019-06-08T09:46:27.971Z,56.50
2019-06-08T09:49:00.429Z,56.40
2019-06-08T09:51:28.504Z,56.20
2019-06-08T09:54:00.606Z,55.50
2019-06-08T09:56:28.278Z,56.90
2019-06-08T09:59:01.305Z,56.40
2019-06-08T10:01:28.749Z,56.40
2019-06-08T10:04:00.800Z,56.40
2019-06-08T10:06:27.810Z,56.60
2019-06-08T10:08:56.708Z,56.00
2019-06-08T10:11:27.929Z,56.10
2019-06-08T10:13:59.378Z,56.40
2019-06-08T10:16:27.996Z,56.60
2019-06-08T10:18:59.506Z,57.00
2019-06-08T10:21:29.091Z,56.60
2019-06-08T10:24:00.929Z,56.90
2019-06-08T10:26:28.261Z,56.90
2019-06-08T10:29:00.300Z,56.80
2019-06-08T10:31:36.438Z,56.10
2019-06-08T10:34:00.564Z,56.20
2019-06-08T10:36:28.621Z,56.50
2019-06-08T10:39:01.627Z,56.30
2019-06-08T10:41:27.952Z,56.30
2019-06-08T10:43:57.562Z,55.60
2019-06-08T10:46:27.337Z,55.60
2019-06-08T10:48:57.334Z,56.00
2019-06-08T10:51:26.538Z,55.70
2019-06-08T10:53:54.947Z,56.50
2019-06-08T10:56:23.687Z,56.40
2019-06-08T10:58:52.341Z,56.20
2019-06-08T11:01:22.741Z,56.50
2019-06-08T11:03:51.362Z,55.20
2019-06-08T11:06:21.139Z,54.30
2019-06-08T11:08:49.522Z,53.50
2019-06-08T11:11:20.285Z,54.00
2019-06-08T11:13:50.469Z,54.80
2019-06-08T11:16:18.538Z,55.00
2019-06-08T11:18:50.811Z,54.10
2019-06-08T11:21:18.693Z,54.60
2019-06-08T11:24:04.749Z,54.00
2019-06-08T11:26:23.855Z,53.70
2019-06-08T11:28:51.290Z,53.50
2019-06-08T11:31:20.576Z,53.00
2019-06-08T11:33:49.317Z,52.90
2019-06-08T11:36:18.962Z,53.50
2019-06-08T11:38:47.853Z,53.50
2019-06-08T11:41:19.019Z,53.30
2019-06-08T11:43:46.860Z,52.20
2019-06-08T11:46:18.383Z,52.50
2019-06-08T11:48:48.376Z,51.70
2019-06-08T11:51:16.152Z,52.80
2019-06-08T11:53:44.548Z,52.50
2019-06-08T11:56:13.598Z,51.50
2019-06-08T11:58:43.358Z,51.60
2019-06-08T12:01:14.788Z,52.20
2019-06-08T12:03:42.469Z,52.50
2019-06-08T12:06:12.978Z,52.40
2019-06-08T12:08:41.278Z,51.20
2019-06-08T12:11:16.420Z,50.10
2019-06-08T12:13:41.380Z,51.80
2019-06-08T12:16:15.808Z,51.50
2019-06-08T12:18:40.491Z,50.50
2019-06-08T12:21:11.108Z,50.00
2019-06-08T12:23:39.586Z,49.80
2019-06-08T12:26:10.131Z,49.90
2019-06-08T12:28:39.716Z,50.50
2019-06-08T12:31:11.969Z,51.10
2019-06-08T12:33:39.167Z,51.80
2019-06-08T12:36:09.107Z,50.70
2019-06-08T12:38:38.151Z,49.80
2019-06-08T12:41:09.169Z,50.60
2019-06-08T12:43:38.555Z,49.40
2019-06-08T12:46:10.663Z,50.70
2019-06-08T12:48:38.512Z,49.10
2019-06-08T12:51:10.022Z,49.50
2019-06-08T12:53:38.192Z,49.90
2019-06-08T12:56:09.087Z,49.90
2019-06-08T12:58:38.668Z,50.30
2019-06-08T13:01:08.213Z,49.50
2019-06-08T13:03:38.699Z,50.20
2019-06-08T13:06:09.176Z,50.90
2019-06-08T13:08:38.056Z,50.00
2019-06-08T13:11:08.148Z,49.10
2019-06-08T13:13:37.734Z,49.80
2019-06-08T13:16:06.841Z,49.10
2019-06-08T13:18:35.255Z,49.00
2019-06-08T13:21:18.775Z,49.30
2019-06-08T13:23:34.044Z,49.50
2019-06-08T13:26:04.050Z,49.20
2019-06-08T13:28:33.592Z,49.30
2019-06-08T13:31:02.207Z,49.70
2019-06-08T13:33:30.603Z,48.80
2019-06-08T13:35:59.311Z,48.90
2019-06-08T13:38:27.900Z,49.20
2019-06-08T13:40:58.924Z,49.20
2019-06-08T13:43:27.058Z,49.40
2019-06-08T13:45:58.115Z,49.60
2019-06-08T13:48:26.157Z,50.10
2019-06-08T13:50:54.572Z,50.70
2019-06-08T13:53:28.552Z,50.40
2019-06-08T13:55:56.751Z,49.30
2019-06-08T13:58:29.762Z,49.40
2019-06-08T14:00:57.385Z,50.50
2019-06-08T14:03:27.557Z,50.10
2019-06-08T14:05:56.402Z,49.60
2019-06-08T14:08:26.513Z,50.00
2019-06-08T14:11:00.472Z,49.70
2019-06-08T14:13:29.323Z,50.10
2019-06-08T14:15:58.561Z,49.40
2019-06-08T14:18:33.077Z,48.00
2019-06-08T14:20:58.719Z,48.10
2019-06-08T14:23:29.418Z,48.00
2019-06-08T14:26:00.283Z,46.80
2019-06-08T14:28:29.011Z,47.10
2019-06-08T14:30:59.370Z,47.00
2019-06-08T14:33:32.092Z,46.20
2019-06-08T14:35:59.196Z,46.40
2019-06-08T14:38:35.881Z,47.10
2019-06-08T14:40:59.101Z,46.30
2019-06-08T14:43:30.010Z,46.30
2019-06-08T14:45:58.060Z,47.30
2019-06-08T14:48:33.148Z,46.10
2019-06-08T14:50:58.642Z,45.60
2019-06-08T14:53:27.217Z,46.30
2019-06-08T14:56:05.711Z,47.10
2019-06-08T14:58:29.346Z,47.20
2019-06-08T15:00:58.004Z,47.10
2019-06-08T15:03:27.295Z,47.20
2019-06-08T15:05:57.724Z,47.10
2019-06-08T15:08:28.574Z,46.60
2019-06-08T15:10:58.170Z,47.30
2019-06-08T15:13:28.603Z,46.10
2019-06-08T15:16:00.386Z,46.30
2019-06-08T15:18:28.866Z,46.40
2019-06-08T15:20:58.079Z,45.60
2019-06-08T15:23:28.966Z,45.80
2019-06-08T15:25:58.242Z,45.30
2019-06-08T15:28:29.539Z,45.50
2019-06-08T15:31:00.003Z,46.50
2019-06-08T15:33:31.044Z,46.40
2019-06-08T15:35:59.743Z,46.40
2019-06-08T15:38:31.549Z,46.80
2019-06-08T15:40:58.240Z,47.90
2019-06-08T15:43:29.181Z,46.20
2019-06-08T15:45:59.123Z,46.30
2019-06-08T15:48:29.352Z,45.60
2019-06-08T15:50:58.393Z,45.90
2019-06-08T15:53:29.686Z,46.40
2019-06-08T15:55:58.348Z,46.20
2019-06-08T15:58:29.538Z,45.60
2019-06-08T16:00:57.346Z,45.40
2019-06-08T16:03:25.737Z,45.70
2019-06-08T16:05:54.150Z,46.40
2019-06-08T16:08:23.911Z,46.60
2019-06-08T16:10:52.305Z,46.60
2019-06-08T16:13:20.727Z,47.50
2019-06-08T16:15:49.182Z,47.20
2019-06-08T16:18:17.569Z,46.50
2019-06-08T16:20:46.021Z,47.30
2019-06-08T16:23:14.724Z,47.10
2019-06-08T16:25:43.106Z,46.60
2019-06-08T16:28:11.797Z,47.30
2019-06-08T16:30:40.491Z,47.10
2019-06-08T16:33:08.893Z,47.10
2019-06-08T16:35:37.318Z,47.50
2019-06-08T16:38:06.478Z,48.00
2019-06-08T16:40:36.258Z,48.40
2019-06-08T16:43:07.191Z,47.40
2019-06-08T16:45:35.905Z,46.40
2019-06-08T16:48:04.371Z,46.70
2019-06-08T16:50:32.772Z,46.90
2019-06-08T16:53:01.458Z,47.30
2019-06-08T16:55:30.149Z,47.40
2019-06-08T16:57:58.564Z,47.10
2019-06-08T17:00:32.405Z,47.40
2019-06-08T17:02:57.212Z,46.90
2019-06-08T17:05:27.015Z,46.90
2019-06-08T17:07:55.413Z,47.00
2019-06-08T17:10:23.824Z,47.40
2019-06-08T17:12:52.304Z,45.60
2019-06-08T17:15:22.620Z,45.80
2019-06-08T17:17:51.043Z,45.50
2019-06-08T17:20:19.561Z,45.90
2019-06-08T17:22:47.957Z,45.30
2019-06-08T17:25:16.603Z,45.60
2019-06-08T17:27:45.370Z,45.70
2019-06-08T17:30:14.955Z,46.10
2019-06-08T17:32:43.344Z,46.60
2019-06-08T17:35:11.932Z,46.60
2019-06-08T17:37:41.990Z,46.50
2019-06-08T17:40:10.775Z,46.60
2019-06-08T17:42:39.653Z,46.40
2019-06-08T17:45:08.904Z,46.60
2019-06-08T17:47:38.464Z,46.70
2019-06-08T17:50:07.461Z,46.80
2019-06-08T17:52:36.916Z,47.20
2019-06-08T17:55:06.602Z,47.50
2019-06-08T17:57:47.400Z,47.70
2019-06-08T18:00:07.625Z,47.90
2019-06-08T18:02:39.929Z,47.80
2019-06-08T18:05:09.829Z,47.80
2019-06-08T18:07:40.142Z,47.80
2019-06-08T18:10:09.113Z,48.00
2019-06-08T18:12:40.772Z,48.20
2019-06-08T18:15:09.261Z,48.50
2019-06-08T18:17:42.013Z,48.70
2019-06-08T18:20:12.296Z,49.00
2019-06-08T18:22:42.517Z,48.80
2019-06-08T18:25:11.660Z,48.80
2019-06-08T18:27:42.388Z,48.90
2019-06-08T18:30:12.238Z,49.10
2019-06-08T18:32:42.490Z,49.20
2019-06-08T18:35:11.584Z,49.10
2019-06-08T18:37:41.368Z,49.40
2019-06-08T18:40:13.324Z,49.10
2019-06-08T18:42:43.134Z,48.90
2019-06-08T18:45:13.681Z,49.40
2019-06-08T18:47:43.750Z,49.50
2019-06-08T18:50:13.025Z,49.80
2019-06-08T18:52:44.642Z,49.60
2019-06-08T18:55:13.553Z,49.50
2019-06-08T18:57:42.765Z,49.70
2019-06-08T19:00:13.415Z,50.00
2019-06-08T19:02:44.938Z,50.00
2019-06-08T19:05:13.244Z,50.40
2019-06-08T19:07:43.552Z,50.70
2019-06-08T19:10:15.124Z,50.90
2019-06-08T19:12:45.746Z,50.80
2019-06-08T19:15:17.892Z,51.10
2019-06-08T19:17:54.255Z,51.40
2019-06-08T19:20:17.966Z,51.40
2019-06-08T19:22:54.118Z,51.60
2019-06-08T19:25:18.282Z,51.70
2019-06-08T19:27:52.947Z,51.80
2019-06-08T19:30:20.133Z,51.70
2019-06-08T19:32:51.665Z,51.60
2019-06-08T19:35:18.472Z,53.40
2019-06-08T19:37:53.287Z,53.50
2019-06-08T19:40:17.788Z,53.70
2019-06-08T19:42:55.460Z,53.90
2019-06-08T19:45:18.342Z,52.70
2019-06-08T19:47:46.725Z,52.80
2019-06-08T19:50:17.272Z,54.00
2019-06-08T19:52:46.330Z,53.80
2019-06-08T19:55:17.894Z,53.50
2019-06-08T19:57:48.540Z,54.00
2019-06-08T20:00:18.052Z,54.50
2019-06-08T20:02:51.264Z,54.80
2019-06-08T20:05:17.582Z,55.00
2019-06-08T20:07:47.014Z,54.40
2019-06-08T20:10:17.664Z,55.50
2019-06-08T20:12:48.009Z,55.40
2019-06-08T20:15:18.436Z,55.80
2019-06-08T20:17:48.881Z,56.20
2019-06-08T20:20:18.312Z,56.10
2019-06-08T20:22:50.454Z,56.20
2019-06-08T20:25:17.942Z,56.30
2019-06-08T20:27:49.737Z,56.50
2019-06-08T20:30:17.562Z,57.00
2019-06-08T20:32:47.236Z,57.00
2019-06-08T20:35:17.420Z,57.30
2019-06-08T20:37:45.940Z,57.50
2019-06-08T20:40:14.755Z,57.70
2019-06-08T20:42:44.180Z,57.90
2019-06-08T20:45:13.501Z,58.20
2019-06-08T20:47:42.324Z,58.20
2019-06-08T20:50:11.429Z,58.40
2019-06-08T20:52:40.103Z,58.70
2019-06-08T20:55:08.894Z,58.90
2019-06-08T20:57:37.603Z,59.10
2019-06-08T21:00:11.481Z,58.90
2019-06-08T21:02:38.654Z,58.90
2019-06-08T21:05:07.998Z,59.00
2019-06-08T21:07:36.585Z,59.10
2019-06-08T21:10:08.333Z,59.30
2019-06-08T21:12:37.955Z,58.90
2019-06-08T21:15:07.879Z,59.30
2019-06-08T21:17:38.428Z,59.40
2019-06-08T21:20:08.501Z,59.60
2019-06-08T21:22:36.787Z,59.90
2019-06-08T21:25:09.246Z,60.20
2019-06-08T21:27:38.552Z,60.40
2019-06-08T21:30:20.300Z,60.60
2019-06-08T21:32:41.125Z,60.30
2019-06-08T21:35:10.009Z,60.70
2019-06-08T21:37:38.403Z,61.10
2019-06-08T21:40:08.556Z,60.90
2019-06-08T21:42:37.464Z,61.10
2019-06-08T21:45:09.415Z,61.30
2019-06-08T21:47:37.865Z,61.20
2019-06-08T21:50:08.029Z,61.10
2019-06-08T21:52:36.736Z,61.70
2019-06-08T21:55:07.322Z,61.90
2019-06-08T21:57:37.145Z,62.00
2019-06-08T22:00:26.900Z,62.10
2019-06-08T22:02:38.936Z,62.00
2019-06-08T22:05:08.367Z,62.10
2019-06-08T22:07:37.743Z,62.50
2019-06-08T22:10:07.591Z,62.40
2019-06-08T22:12:39.940Z,62.40
2019-06-08T22:15:07.796Z,62.60
2019-06-08T22:17:38.261Z,62.30
2019-06-08T22:20:08.145Z,62.20
2019-06-08T22:22:37.860Z,62.00
2019-06-08T22:25:08.253Z,61.70
2019-06-08T22:27:38.278Z,62.40
2019-06-08T22:30:13.345Z,62.50
2019-06-08T22:32:38.468Z,62.50
2019-06-08T22:35:08.088Z,62.20
2019-06-08T22:37:37.958Z,62.70
2019-06-08T22:40:08.211Z,62.90
2019-06-08T22:42:37.730Z,63.20
2019-06-08T22:45:09.738Z,62.70
2019-06-08T22:47:38.861Z,63.40
2019-06-08T22:50:09.259Z,63.70
2019-06-08T22:52:37.780Z,63.70
2019-06-08T22:55:10.653Z,63.80
2019-06-08T22:57:38.489Z,64.20
2019-06-08T23:00:16.812Z,64.20
2019-06-08T23:02:40.507Z,64.20
2019-06-08T23:05:09.419Z,64.50
2019-06-08T23:07:38.078Z,64.60
2019-06-08T23:10:09.778Z,64.80
2019-06-08T23:12:38.542Z,64.50
2019-06-08T23:15:10.481Z,64.40
2019-06-08T23:17:39.058Z,64.60
2019-06-08T23:20:08.676Z,65.00
2019-06-08T23:22:38.435Z,64.80
2019-06-08T23:25:09.462Z,64.70
2019-06-08T23:27:38.348Z,65.00
2019-06-08T23:30:10.117Z,65.10
2019-06-08T23:32:39.066Z,65.20
2019-06-08T23:35:09.403Z,65.00
2019-06-08T23:37:38.511Z,65.00
2019-06-08T23:40:07.662Z,65.10
2019-06-08T23:42:38.295Z,65.20
2019-06-08T23:45:10.160Z,65.40
2019-06-08T23:47:39.262Z,65.60
2019-06-08T23:50:11.283Z,65.70
2019-06-08T23:52:38.598Z,65.90
2019-06-08T23:55:10.496Z,65.90
2019-06-08T23:57:38.549Z,65.90
